createdAt,value
2018-11-10T00:01:30.994Z,23.00
2018-11-10T00:03:58.171Z,22.90
2018-11-10T00:06:25.550Z,22.90
2018-11-10T00:08:52.682Z,24.37
2018-11-10T00:11:19.912Z,22.83
2018-11-10T00:13:47.068Z,23.43
2018-11-10T00:16:14.250Z,22.57
2018-11-10T00:18:41.424Z,21.80
2018-11-10T00:21:08.575Z,21.37
2018-11-10T00:23:35.737Z,21.67
2018-11-10T00:26:02.908Z,20.70
2018-11-10T00:28:30.041Z,22.13
2018-11-10T00:30:57.746Z,22.97
2018-11-10T00:33:24.897Z,20.60
2018-11-10T00:35:52.039Z,22.50
2018-11-10T00:38:19.203Z,21.97
2018-11-10T00:40:46.350Z,21.60
2018-11-10T00:43:13.493Z,21.50
2018-11-10T00:45:40.656Z,22.53
2018-11-10T00:48:07.823Z,21.80
2018-11-10T00:50:35.017Z,22.73
2018-11-10T00:53:02.180Z,21.53
2018-11-10T00:55:29.397Z,23.07
2018-11-10T00:57:56.589Z,22.40
2018-11-10T01:00:23.763Z,23.30
2018-11-10T01:02:50.913Z,20.43
2018-11-10T01:05:18.091Z,21.77
2018-11-10T01:07:45.260Z,22.73
2018-11-10T01:10:13.075Z,20.77
2018-11-10T01:12:40.430Z,21.73
2018-11-10T01:15:09.246Z,22.70
2018-11-10T01:17:36.480Z,22.80
2018-11-10T01:20:03.824Z,21.23
2018-11-10T01:22:30.975Z,20.93
2018-11-10T01:24:58.118Z,21.87
2018-11-10T01:27:25.292Z,19.97
2018-11-10T01:29:52.427Z,20.40
2018-11-10T01:32:19.690Z,22.60
2018-11-10T01:34:46.855Z,21.03
2018-11-10T01:37:14.003Z,22.37
2018-11-10T01:39:41.144Z,22.40
2018-11-10T01:42:08.304Z,19.73
2018-11-10T01:44:35.473Z,21.27
2018-11-10T01:47:02.602Z,20.27
2018-11-10T01:49:29.757Z,20.27
2018-11-10T01:51:56.924Z,19.33
2018-11-10T01:54:24.068Z,21.33
2018-11-10T01:56:51.203Z,19.60
2018-11-10T01:59:18.349Z,20.00
2018-11-10T02:01:45.519Z,19.90
2018-11-10T02:04:12.743Z,20.00
2018-11-10T02:06:39.912Z,20.17
2018-11-10T02:09:07.968Z,19.53
2018-11-10T02:11:35.129Z,19.57
2018-11-10T02:14:02.463Z,20.23
2018-11-10T02:16:29.619Z,20.23
2018-11-10T02:18:56.770Z,20.60
2018-11-10T02:21:23.951Z,18.30
2018-11-10T02:23:51.132Z,20.37
2018-11-10T02:26:18.343Z,18.43
2018-11-10T02:28:45.543Z,18.77
2018-11-10T02:31:19.381Z,18.43
2018-11-10T02:33:46.583Z,19.33
2018-11-10T02:36:13.997Z,19.00
2018-11-10T02:38:41.163Z,19.67
2018-11-10T02:41:08.291Z,19.13
2018-11-10T02:43:35.460Z,17.53
2018-11-10T02:46:02.613Z,17.67
2018-11-10T02:48:29.759Z,19.37
2018-11-10T02:50:57.003Z,18.67
2018-11-10T02:53:24.149Z,18.83
2018-11-10T02:55:51.313Z,18.57
2018-11-10T02:58:18.436Z,19.37
2018-11-10T03:00:45.564Z,17.07
2018-11-10T03:03:12.752Z,19.07
2018-11-10T03:05:39.923Z,18.23
2018-11-10T03:08:07.068Z,17.90
2018-11-10T03:10:34.233Z,17.10
2018-11-10T03:13:01.355Z,17.30
2018-11-10T03:15:28.495Z,17.90
2018-11-10T03:17:55.645Z,18.53
2018-11-10T03:20:22.791Z,18.47
2018-11-10T03:22:49.960Z,17.13
2018-11-10T03:25:17.110Z,17.53
2018-11-10T03:27:44.281Z,17.87
2018-11-10T03:30:11.479Z,18.67
2018-11-10T03:32:38.636Z,16.37
2018-11-10T03:35:06.543Z,17.57
2018-11-10T03:37:33.737Z,17.47
2018-11-10T03:40:01.176Z,16.67
2018-11-10T03:42:28.324Z,17.37
2018-11-10T03:44:55.451Z,17.57
2018-11-10T03:47:22.572Z,17.57
2018-11-10T03:49:49.729Z,18.17
2018-11-10T03:52:16.876Z,17.07
2018-11-10T03:54:43.994Z,16.00
2018-11-10T03:57:11.128Z,17.57
2018-11-10T03:59:38.575Z,17.53
2018-11-10T04:02:05.824Z,16.77
2018-11-10T04:04:32.972Z,17.17
2018-11-10T04:07:00.172Z,17.43
2018-11-10T04:09:27.316Z,16.87
2018-11-10T04:11:54.456Z,16.60
2018-11-10T04:14:21.636Z,18.80
2018-11-10T04:16:48.792Z,18.10
2018-11-10T04:19:15.975Z,16.73
2018-11-10T04:21:43.115Z,16.97
2018-11-10T04:24:10.290Z,16.40
2018-11-10T04:26:37.415Z,18.57
2018-11-10T04:29:04.579Z,19.23
2018-11-10T04:31:31.716Z,17.67
2018-11-10T04:33:59.219Z,17.77
2018-11-10T04:36:26.437Z,18.23
2018-11-10T04:38:53.591Z,18.50
2018-11-10T04:41:20.759Z,19.00
2018-11-10T04:43:47.879Z,19.07
2018-11-10T04:46:15.141Z,18.93
2018-11-10T04:48:42.321Z,17.33
2018-11-10T04:51:09.470Z,18.80
2018-11-10T04:53:36.659Z,18.93
2018-11-10T04:56:04.216Z,18.27
2018-11-10T04:58:31.343Z,17.97
2018-11-10T05:00:58.478Z,19.53
2018-11-10T05:03:25.612Z,18.70
2018-11-10T05:05:52.772Z,19.50
2018-11-10T05:08:19.906Z,19.77
2018-11-10T05:10:47.064Z,19.30
2018-11-10T05:13:14.255Z,19.23
2018-11-10T05:15:41.430Z,19.70
2018-11-10T05:18:08.592Z,19.43
2018-11-10T05:20:35.740Z,18.43
2018-11-10T05:23:02.941Z,20.43
2018-11-10T05:25:30.099Z,21.57
2018-11-10T05:27:57.263Z,19.80
2018-11-10T05:30:24.425Z,21.40
2018-11-10T05:32:51.589Z,19.57
2018-11-10T05:35:18.895Z,20.23
2018-11-10T05:37:46.035Z,20.37
2018-11-10T05:40:13.195Z,20.77
2018-11-10T05:42:40.624Z,22.47
2018-11-10T05:45:07.939Z,23.10
2018-11-10T05:47:35.073Z,21.93
2018-11-10T05:50:02.268Z,22.50
2018-11-10T05:52:29.398Z,22.47
2018-11-10T05:54:56.791Z,24.47
2018-11-10T05:57:23.915Z,23.13
2018-11-10T05:59:51.096Z,22.40
2018-11-10T06:02:18.236Z,23.33
2018-11-10T06:04:45.367Z,22.47
2018-11-10T06:07:12.528Z,24.77
2018-11-10T06:09:39.689Z,22.10
2018-11-10T06:12:06.814Z,22.23
2018-11-10T06:14:33.968Z,22.60
2018-11-10T06:17:01.103Z,21.33
2018-11-10T06:19:28.245Z,22.37
2018-11-10T06:21:55.372Z,24.00
2018-11-10T06:24:22.532Z,24.40
2018-11-10T06:26:49.670Z,24.37
2018-11-10T06:29:16.821Z,24.27
2018-11-10T06:31:43.983Z,24.60
2018-11-10T06:34:11.176Z,23.97
2018-11-10T06:36:38.345Z,25.03
2018-11-10T06:39:07.543Z,24.07
2018-11-10T06:41:35.072Z,24.53
2018-11-10T06:44:02.208Z,25.47
2018-11-10T06:46:29.363Z,26.40
2018-11-10T06:48:56.501Z,24.97
2018-11-10T06:51:23.628Z,23.07
2018-11-10T06:53:50.764Z,25.53
2018-11-10T06:56:18.025Z,27.30
2018-11-10T06:58:45.147Z,28.17
2018-11-10T07:01:12.287Z,26.80
2018-11-10T07:03:39.432Z,27.07
2018-11-10T07:06:06.632Z,27.03
2018-11-10T07:08:33.784Z,26.90
2018-11-10T07:11:00.979Z,25.37
2018-11-10T07:13:28.116Z,26.07
2018-11-10T07:15:55.321Z,26.00
2018-11-10T07:18:22.406Z,25.40
2018-11-10T07:20:49.542Z,26.23
2018-11-10T07:23:16.707Z,21.70
2018-11-10T07:25:43.831Z,22.87
2018-11-10T07:28:11.014Z,26.20
2018-11-10T07:30:39.069Z,25.23
2018-11-10T07:33:06.219Z,24.87
2018-11-10T07:35:33.364Z,25.87
2018-11-10T07:38:00.533Z,25.80
2018-11-10T07:40:27.670Z,26.80
2018-11-10T07:42:54.832Z,24.60
2018-11-10T07:45:21.967Z,26.13
2018-11-10T07:47:49.175Z,24.80
2018-11-10T07:50:16.308Z,25.70
2018-11-10T07:52:43.455Z,24.87
2018-11-10T07:55:12.092Z,26.60
2018-11-10T07:57:39.299Z,23.63
2018-11-10T08:00:08.962Z,24.80
2018-11-10T08:02:36.115Z,23.80
2018-11-10T08:05:03.303Z,23.70
2018-11-10T08:07:30.446Z,24.30
2018-11-10T08:09:57.583Z,25.47
2018-11-10T08:12:24.715Z,25.93
2018-11-10T08:14:51.841Z,23.50
2018-11-10T08:17:19.035Z,24.23
2018-11-10T08:19:46.168Z,25.63
2018-11-10T08:22:13.294Z,24.90
2018-11-10T08:24:40.435Z,24.50
2018-11-10T08:27:07.586Z,25.83
2018-11-10T08:29:34.746Z,25.40
2018-11-10T08:32:01.926Z,27.77
2018-11-10T08:34:29.059Z,26.93
2018-11-10T08:36:56.201Z,24.90
2018-11-10T08:39:23.456Z,24.87
2018-11-10T08:41:50.503Z,25.83
2018-11-10T08:44:17.662Z,25.70
2018-11-10T08:46:44.823Z,25.77
2018-11-10T08:49:12.014Z,24.93
2018-11-10T08:51:39.313Z,24.63
2018-11-10T08:54:06.463Z,25.77
2018-11-10T08:56:33.628Z,23.80
2018-11-10T08:59:00.793Z,25.63
2018-11-10T09:01:27.950Z,25.30
2018-11-10T09:03:55.095Z,25.47
2018-11-10T09:06:22.248Z,26.47
2018-11-10T09:08:49.379Z,24.63
2018-11-10T09:11:16.507Z,24.60
2018-11-10T09:13:43.646Z,26.63
2018-11-10T09:16:10.803Z,24.47
2018-11-10T09:18:37.985Z,25.70
2018-11-10T09:21:05.503Z,23.03
2018-11-10T09:23:32.588Z,24.33
2018-11-10T09:25:59.744Z,24.43
2018-11-10T09:28:26.923Z,22.57
2018-11-10T09:30:54.078Z,24.13
2018-11-10T09:33:21.226Z,22.70
2018-11-10T09:35:48.395Z,24.63
2018-11-10T09:38:15.528Z,23.17
2018-11-10T09:40:42.660Z,24.67
2018-11-10T09:43:09.805Z,25.10
2018-11-10T09:45:36.984Z,23.27
2018-11-10T09:48:04.384Z,23.00
2018-11-10T09:50:31.601Z,20.90
2018-11-10T09:52:58.746Z,22.27
2018-11-10T09:55:25.906Z,22.83
2018-11-10T09:57:53.158Z,23.33
2018-11-10T10:00:21.266Z,22.73
2018-11-10T10:02:49.028Z,22.47
2018-11-10T10:05:15.778Z,21.50
2018-11-10T10:07:43.464Z,23.47
2018-11-10T10:10:12.244Z,19.47
2018-11-10T10:12:39.495Z,20.60
2018-11-10T10:15:08.193Z,21.47
2018-11-10T10:17:35.414Z,20.03
2018-11-10T10:20:02.651Z,22.03
2018-11-10T10:22:30.076Z,21.20
2018-11-10T10:24:57.393Z,21.47
2018-11-10T10:27:24.559Z,20.67
2018-11-10T10:29:51.701Z,22.53
2018-11-10T10:32:18.830Z,25.62
2018-11-10T10:34:46.221Z,22.67
2018-11-10T10:37:13.311Z,20.30
2018-11-10T10:39:40.453Z,21.37
2018-11-10T10:42:07.621Z,21.53
2018-11-10T10:44:34.754Z,21.23
2018-11-10T10:47:01.889Z,18.47
2018-11-10T10:49:29.038Z,20.77
2018-11-10T10:51:56.196Z,20.27
2018-11-10T10:54:23.427Z,19.07
2018-11-10T10:56:50.631Z,19.50
2018-11-10T10:59:19.186Z,21.23
2018-11-10T11:01:52.147Z,21.60
2018-11-10T11:04:25.138Z,20.60
2018-11-10T11:06:52.371Z,19.87
2018-11-10T11:09:19.629Z,20.40
2018-11-10T11:11:46.800Z,19.73
2018-11-10T11:14:13.963Z,19.90
2018-11-10T11:16:41.144Z,19.57
2018-11-10T11:19:08.356Z,18.87
2018-11-10T11:21:35.531Z,19.50
2018-11-10T11:24:02.687Z,19.83
2018-11-10T11:26:29.859Z,18.70
2018-11-10T11:28:57.054Z,20.60
2018-11-10T11:31:24.243Z,20.90
2018-11-10T11:33:51.419Z,20.10
2018-11-10T11:36:18.515Z,20.03
2018-11-10T11:38:45.639Z,20.13
2018-11-10T11:41:12.918Z,19.63
2018-11-10T11:43:39.944Z,21.23
2018-11-10T11:46:07.090Z,21.57
2018-11-10T11:48:34.740Z,21.63
2018-11-10T11:51:01.881Z,21.43
2018-11-10T11:53:29.028Z,22.30
2018-11-10T11:55:56.153Z,20.30
2018-11-10T11:58:23.364Z,21.00
2018-11-10T12:00:50.524Z,19.73
2018-11-10T12:03:17.731Z,19.97
2018-11-10T12:05:44.879Z,20.53
2018-11-10T12:08:12.052Z,17.97
2018-11-10T12:10:39.237Z,19.47
2018-11-10T12:13:06.391Z,20.30
2018-11-10T12:15:33.538Z,19.43
2018-11-10T12:18:00.663Z,20.57
2018-11-10T12:20:27.800Z,18.47
2018-11-10T12:22:54.931Z,21.20
2018-11-10T12:25:22.080Z,21.33
2018-11-10T12:27:49.236Z,21.13
2018-11-10T12:30:16.363Z,19.00
2018-11-10T12:32:43.548Z,19.90
2018-11-10T12:35:11.943Z,20.80
2018-11-10T12:37:39.095Z,20.83
2018-11-10T12:40:07.788Z,19.37
2018-11-10T12:42:35.239Z,20.07
2018-11-10T12:45:02.489Z,19.20
2018-11-10T12:47:29.739Z,20.33
2018-11-10T12:49:56.843Z,20.23
2018-11-10T12:52:23.980Z,19.43
2018-11-10T12:54:51.233Z,18.33
2018-11-10T12:57:18.319Z,18.73
2018-11-10T12:59:45.458Z,19.40
2018-11-10T13:02:12.633Z,18.27
2018-11-10T13:04:39.778Z,20.10
2018-11-10T13:07:06.995Z,19.40
2018-11-10T13:09:34.076Z,20.93
2018-11-10T13:12:01.283Z,20.57
2018-11-10T13:14:28.423Z,19.77
2018-11-10T13:16:55.558Z,20.10
2018-11-10T13:19:22.705Z,20.27
2018-11-10T13:21:49.878Z,21.47
2018-11-10T13:24:17.152Z,20.00
2018-11-10T13:26:44.260Z,20.10
2018-11-10T13:29:11.408Z,19.80
2018-11-10T13:31:38.627Z,20.53
2018-11-10T13:34:05.702Z,20.73
2018-11-10T13:36:32.835Z,19.57
2018-11-10T13:39:00.000Z,19.40
2018-11-10T13:41:27.135Z,19.13
2018-11-10T13:43:54.427Z,20.10
2018-11-10T13:46:21.456Z,20.23
2018-11-10T13:48:48.943Z,18.73
2018-11-10T13:51:16.443Z,19.23
2018-11-10T13:53:43.281Z,18.40
2018-11-10T13:56:10.439Z,19.13
2018-11-10T13:58:37.589Z,18.97
2018-11-10T14:01:05.090Z,18.33
2018-11-10T14:03:32.967Z,19.23
2018-11-10T14:06:00.155Z,19.30
2018-11-10T14:08:27.295Z,20.23
2018-11-10T14:10:54.471Z,19.23
2018-11-10T14:13:21.610Z,18.33
2018-11-10T14:15:48.776Z,18.13
2018-11-10T14:18:15.922Z,19.20
2018-11-10T14:20:43.227Z,18.13
2018-11-10T14:23:10.251Z,19.20
2018-11-10T14:25:37.411Z,17.87
2018-11-10T14:28:04.868Z,17.83
2018-11-10T14:30:32.028Z,18.47
2018-11-10T14:32:59.170Z,18.20
2018-11-10T14:35:26.331Z,18.50
2018-11-10T14:37:53.473Z,18.73
2018-11-10T14:40:20.652Z,19.93
2018-11-10T14:42:47.804Z,20.80
2018-11-10T14:45:16.377Z,19.63
2018-11-10T14:47:44.028Z,19.17
2018-11-10T14:50:12.184Z,18.20
2018-11-10T14:52:39.649Z,19.00
2018-11-10T14:55:07.315Z,18.67
2018-11-10T14:57:34.592Z,19.73
2018-11-10T15:00:01.944Z,18.63
2018-11-10T15:02:29.101Z,19.17
2018-11-10T15:04:56.301Z,20.00
2018-11-10T15:07:23.431Z,21.70
2018-11-10T15:09:50.617Z,21.83
2018-11-10T15:12:17.894Z,19.40
2018-11-10T15:14:44.943Z,20.57
2018-11-10T15:17:12.093Z,18.23
2018-11-10T15:19:39.246Z,17.60
2018-11-10T15:22:06.596Z,19.13
2018-11-10T15:24:33.750Z,19.60
2018-11-10T15:27:00.935Z,19.77
2018-11-10T15:29:28.075Z,18.70
2018-11-10T15:31:55.230Z,20.23
2018-11-10T15:34:29.134Z,18.63
2018-11-10T15:36:56.401Z,17.73
2018-11-10T15:39:23.563Z,18.67
2018-11-10T15:41:50.703Z,16.53
2018-11-10T15:44:17.834Z,15.77
2018-11-10T15:46:44.955Z,17.87
2018-11-10T15:49:12.114Z,17.27
2018-11-10T15:51:39.483Z,17.33
2018-11-10T15:54:06.660Z,16.57
2018-11-10T15:56:33.844Z,15.47
2018-11-10T15:59:01.081Z,17.43
2018-11-10T16:01:28.236Z,16.57
2018-11-10T16:03:55.396Z,15.17
2018-11-10T16:06:22.555Z,15.80
2018-11-10T16:08:49.716Z,16.20
2018-11-10T16:11:16.908Z,15.13
2018-11-10T16:13:44.092Z,15.83
2018-11-10T16:16:11.232Z,16.07
2018-11-10T16:18:45.061Z,14.23
2018-11-10T16:21:12.672Z,16.70
2018-11-10T16:23:39.794Z,15.63
2018-11-10T16:26:06.949Z,15.57
2018-11-10T16:28:34.164Z,15.10
2018-11-10T16:31:01.275Z,14.00
2018-11-10T16:33:28.425Z,14.93
2018-11-10T16:35:55.584Z,15.10
2018-11-10T16:38:22.788Z,13.63
2018-11-10T16:40:49.956Z,13.77
2018-11-10T16:43:17.119Z,12.83
2018-11-10T16:45:44.283Z,14.10
2018-11-10T16:48:11.424Z,12.83
2018-11-10T16:50:38.563Z,13.37
2018-11-10T16:53:05.756Z,13.27
2018-11-10T16:55:32.927Z,12.90
2018-11-10T16:58:00.074Z,13.00
2018-11-10T17:00:27.216Z,12.90
2018-11-10T17:02:54.370Z,11.57
2018-11-10T17:05:21.542Z,13.17
2018-11-10T17:07:48.670Z,12.13
2018-11-10T17:10:16.983Z,11.97
2018-11-10T17:12:44.148Z,13.00
2018-11-10T17:15:11.499Z,12.83
2018-11-10T17:17:38.790Z,13.57
2018-11-10T17:20:08.286Z,12.47
2018-11-10T17:22:35.829Z,13.00
2018-11-10T17:25:02.930Z,14.13
2018-11-10T17:27:30.124Z,13.10
2018-11-10T17:29:57.266Z,11.37
2018-11-10T17:32:24.407Z,13.90
2018-11-10T17:34:51.540Z,13.53
2018-11-10T17:37:18.646Z,12.73
2018-11-10T17:39:45.903Z,14.13
2018-11-10T17:42:12.958Z,13.53
2018-11-10T17:44:40.059Z,14.13
2018-11-10T17:47:07.179Z,13.63
2018-11-10T17:49:34.505Z,13.20
2018-11-10T17:52:02.257Z,13.07
2018-11-10T17:54:29.317Z,12.67
2018-11-10T17:56:56.439Z,14.30
2018-11-10T17:59:23.725Z,12.30
2018-11-10T18:01:50.993Z,11.43
2018-11-10T18:04:18.031Z,12.73
2018-11-10T18:06:45.179Z,13.33
2018-11-10T18:09:12.337Z,13.13
2018-11-10T18:11:39.978Z,9.87
2018-11-10T18:14:07.443Z,12.03
2018-11-10T18:16:34.595Z,11.90
2018-11-10T18:19:01.919Z,11.47
2018-11-10T18:21:29.304Z,12.90
2018-11-10T18:23:56.425Z,11.53
2018-11-10T18:26:23.546Z,11.57
2018-11-10T18:28:50.672Z,10.93
2018-11-10T18:31:17.803Z,12.03
2018-11-10T18:33:44.944Z,9.90
2018-11-10T18:36:12.072Z,11.23
2018-11-10T18:38:39.204Z,13.77
2018-11-10T18:41:06.340Z,11.37
2018-11-10T18:43:33.460Z,9.50
2018-11-10T18:46:00.611Z,11.23
2018-11-10T18:48:27.742Z,10.33
2018-11-10T18:50:54.875Z,10.50
2018-11-10T18:53:22.221Z,10.67
2018-11-10T18:55:49.351Z,11.87
2018-11-10T18:58:16.531Z,11.23
2018-11-10T19:00:43.638Z,10.87
2018-11-10T19:03:10.760Z,10.67
2018-11-10T19:05:37.878Z,10.67
2018-11-10T19:08:05.080Z,9.73
2018-11-10T19:10:32.235Z,10.00
2018-11-10T19:12:59.400Z,11.30
2018-11-10T19:15:26.563Z,11.10
2018-11-10T19:17:53.695Z,10.43
2018-11-10T19:20:20.855Z,9.90
2018-11-10T19:22:48.041Z,9.23
2018-11-10T19:25:15.134Z,8.20
2018-11-10T19:27:42.266Z,8.30
2018-11-10T19:30:12.336Z,8.77
2018-11-10T19:32:39.488Z,8.97
2018-11-10T19:35:06.643Z,8.60
2018-11-10T19:37:33.792Z,8.03
2018-11-10T19:40:01.035Z,7.67
2018-11-10T19:42:28.180Z,7.83
2018-11-10T19:44:55.316Z,8.43
2018-11-10T19:47:22.447Z,8.70
2018-11-10T19:49:49.570Z,8.77
2018-11-10T19:52:17.269Z,9.50
2018-11-10T19:54:44.511Z,9.77
2018-11-10T19:57:11.635Z,8.10
2018-11-10T19:59:38.766Z,8.20
2018-11-10T20:02:06.060Z,8.00
2018-11-10T20:04:33.203Z,8.67
2018-11-10T20:07:00.348Z,8.10
2018-11-10T20:09:27.484Z,8.13
2018-11-10T20:11:54.610Z,8.03
2018-11-10T20:14:21.723Z,7.80
2018-11-10T20:16:48.853Z,8.27
2018-11-10T20:19:15.971Z,8.53
2018-11-10T20:21:43.086Z,8.10
2018-11-10T20:24:10.280Z,7.60
2018-11-10T20:26:37.448Z,7.90
2018-11-10T20:29:05.107Z,9.37
2018-11-10T20:31:32.248Z,8.40
2018-11-10T20:33:59.379Z,8.93
2018-11-10T20:36:26.486Z,10.30
2018-11-10T20:38:53.802Z,9.03
2018-11-10T20:41:20.868Z,8.70
2018-11-10T20:43:47.986Z,8.03
2018-11-10T20:46:15.194Z,7.47
2018-11-10T20:48:42.332Z,7.33
2018-11-10T20:51:09.500Z,9.30
2018-11-10T20:53:36.616Z,11.13
2018-11-10T20:56:04.243Z,9.17
2018-11-10T20:58:31.379Z,10.00
2018-11-10T21:00:58.533Z,9.10
2018-11-10T21:03:25.653Z,9.70
2018-11-10T21:05:52.945Z,9.00
2018-11-10T21:08:19.930Z,10.20
2018-11-10T21:10:47.075Z,9.47
2018-11-10T21:13:14.208Z,9.50
2018-11-10T21:15:41.357Z,12.40
2018-11-10T21:18:08.554Z,12.50
2018-11-10T21:20:35.718Z,10.17
2018-11-10T21:23:02.854Z,11.47
2018-11-10T21:25:29.975Z,14.60
2018-11-10T21:27:57.100Z,8.80
2018-11-10T21:30:24.244Z,8.57
2018-11-10T21:32:51.376Z,15.10
2018-11-10T21:35:18.589Z,9.33
2018-11-10T21:37:45.679Z,11.07
2018-11-10T21:40:17.029Z,8.40
2018-11-10T21:42:44.670Z,8.77
2018-11-10T21:45:12.645Z,9.17
2018-11-10T21:47:39.824Z,9.03
2018-11-10T21:50:09.404Z,14.13
2018-11-10T21:52:36.680Z,9.60
2018-11-10T21:55:04.112Z,8.23
2018-11-10T21:57:31.235Z,14.13
2018-11-10T21:59:58.404Z,7.80
2018-11-10T22:02:25.543Z,8.50
2018-11-10T22:04:52.668Z,7.73
2018-11-10T22:07:19.784Z,8.37
2018-11-10T22:09:46.976Z,8.60
2018-11-10T22:12:14.069Z,9.37
2018-11-10T22:14:41.195Z,8.23
2018-11-10T22:17:08.371Z,8.43
2018-11-10T22:19:35.506Z,9.00
2018-11-10T22:22:02.724Z,8.97
2018-11-10T22:24:29.846Z,9.63
2018-11-10T22:26:56.980Z,9.83
2018-11-10T22:29:24.113Z,10.30
2018-11-10T22:31:51.242Z,11.43
2018-11-10T22:34:18.399Z,9.77
2018-11-10T22:36:45.515Z,9.60
2018-11-10T22:39:12.651Z,10.07
2018-11-10T22:41:39.811Z,9.30
2018-11-10T22:44:06.950Z,8.73
2018-11-10T22:46:34.085Z,7.90
2018-11-10T22:49:01.213Z,8.83
2018-11-10T22:51:28.340Z,9.07
2018-11-10T22:53:55.482Z,9.20
2018-11-10T22:56:22.607Z,8.70
2018-11-10T22:58:49.747Z,7.57
2018-11-10T23:01:16.883Z,8.03
2018-11-10T23:03:44.037Z,8.77
2018-11-10T23:06:11.148Z,7.47
2018-11-10T23:08:38.280Z,7.90
2018-11-10T23:11:05.463Z,9.43
2018-11-10T23:13:32.738Z,8.17
2018-11-10T23:15:59.876Z,8.80
2018-11-10T23:18:27.172Z,9.53
2018-11-10T23:20:54.532Z,9.60
2018-11-10T23:23:21.782Z,9.63
2018-11-10T23:25:48.949Z,10.83
2018-11-10T23:28:16.092Z,10.87
2018-11-10T23:30:43.244Z,10.40
2018-11-10T23:33:10.396Z,9.80
2018-11-10T23:35:37.626Z,10.53
2018-11-10T23:38:04.813Z,12.03
2018-11-10T23:40:31.962Z,11.97
2018-11-10T23:42:59.171Z,11.07
2018-11-10T23:45:26.376Z,10.87
2018-11-10T23:47:53.527Z,9.97
2018-11-10T23:50:20.769Z,9.47
2018-11-10T23:52:47.969Z,9.53
2018-11-10T23:55:15.775Z,9.50
2018-11-10T23:57:42.957Z,10.53
